createdAt,value
2017-10-29T00:00:56.009Z,20.43
2017-10-29T00:03:22.931Z,24.77
2017-10-29T00:05:49.114Z,30.73
2017-10-29T00:08:15.313Z,31.70
2017-10-29T00:10:41.498Z,25.30
2017-10-29T00:13:07.710Z,21.33
2017-10-29T00:15:34.629Z,19.43
2017-10-29T00:18:00.795Z,21.40
2017-10-29T00:20:27.728Z,22.87
2017-10-29T00:22:55.361Z,27.80
2017-10-29T00:25:21.501Z,21.83
2017-10-29T00:27:47.671Z,16.57
2017-10-29T00:30:14.564Z,7.80
2017-10-29T00:32:40.722Z,16.70
2017-10-29T00:35:06.933Z,19.97
2017-10-29T00:37:33.464Z,15.87
2017-10-29T00:39:59.694Z,13.63
2017-10-29T00:42:25.874Z,14.20
2017-10-29T00:44:52.025Z,21.87
2017-10-29T00:47:18.998Z,15.90
2017-10-29T00:49:45.193Z,20.93
2017-10-29T00:52:12.150Z,16.73
2017-10-29T00:54:38.331Z,27.23
2017-10-29T00:57:04.538Z,17.30
2017-10-29T00:59:31.437Z,27.90
2017-10-29T01:01:57.625Z,24.03
2017-10-29T01:04:24.563Z,23.33
2017-10-29T01:06:51.498Z,23.10
2017-10-29T01:09:18.442Z,22.23
2017-10-29T01:11:44.666Z,20.97
2017-10-29T01:14:10.905Z,31.13
2017-10-29T01:16:37.146Z,21.60
2017-10-29T01:19:04.834Z,25.30
2017-10-29T01:21:31.747Z,24.23
2017-10-29T01:23:57.926Z,27.07
2017-10-29T01:26:24.846Z,36.23
2017-10-29T01:28:51.018Z,23.37
2017-10-29T01:31:17.956Z,31.97
2017-10-29T01:33:44.902Z,33.10
2017-10-29T01:36:11.817Z,31.17
2017-10-29T01:38:38.217Z,28.00
2017-10-29T01:41:04.435Z,28.53
2017-10-29T01:43:31.353Z,32.70
2017-10-29T01:45:57.517Z,37.20
2017-10-29T01:48:23.749Z,23.53
2017-10-29T01:50:49.968Z,29.97
2017-10-29T01:53:16.890Z,35.37
2017-10-29T01:55:43.099Z,25.33
2017-10-29T01:58:09.278Z,32.63
2017-10-29T02:00:36.217Z,23.17
2017-10-29T02:03:02.403Z,32.33
2017-10-29T02:05:28.582Z,41.03
2017-10-29T02:07:54.744Z,27.37
2017-10-29T02:10:21.666Z,36.27
2017-10-29T02:12:47.856Z,36.73
2017-10-29T02:15:14.039Z,47.57
2017-10-29T02:17:40.245Z,46.87
2017-10-29T02:20:06.462Z,37.27
2017-10-29T02:22:34.165Z,47.87
2017-10-29T02:25:00.346Z,44.57
2017-10-29T02:27:26.534Z,47.43
2017-10-29T02:29:52.702Z,60.47
2017-10-29T02:32:19.663Z,31.60
2017-10-29T02:34:46.741Z,28.93
2017-10-29T02:37:12.920Z,36.57
2017-10-29T02:39:40.165Z,23.40
2017-10-29T02:42:06.347Z,40.93
2017-10-29T02:44:32.529Z,31.63
2017-10-29T02:46:58.734Z,24.87
2017-10-29T02:49:24.914Z,35.60
2017-10-29T02:51:51.094Z,24.63
2017-10-29T02:54:17.281Z,24.40
2017-10-29T02:56:43.441Z,35.53
2017-10-29T02:59:09.618Z,31.60
2017-10-29T03:01:35.790Z,36.87
2017-10-29T03:04:02.721Z,35.40
2017-10-29T03:06:28.934Z,30.03
2017-10-29T03:08:55.119Z,38.77
2017-10-29T03:11:22.034Z,27.43
2017-10-29T03:13:48.977Z,47.30
2017-10-29T03:16:15.161Z,43.83
2017-10-29T03:18:41.349Z,49.60
2017-10-29T03:21:07.546Z,48.67
2017-10-29T03:23:33.767Z,46.47
2017-10-29T03:25:59.983Z,60.60
2017-10-29T03:28:26.228Z,55.37
2017-10-29T03:30:53.179Z,58.40
2017-10-29T03:33:20.085Z,45.97
2017-10-29T03:35:46.263Z,40.40
2017-10-29T03:38:13.190Z,42.60
2017-10-29T03:40:42.630Z,47.47
2017-10-29T03:43:08.814Z,62.93
2017-10-29T03:45:35.026Z,38.40
2017-10-29T03:48:01.269Z,44.57
2017-10-29T03:50:27.440Z,45.43
2017-10-29T03:52:54.369Z,44.70
2017-10-29T03:55:20.613Z,56.63
2017-10-29T03:57:46.796Z,37.70
2017-10-29T04:00:12.998Z,52.63
2017-10-29T04:02:39.190Z,48.70
2017-10-29T04:05:05.391Z,50.57
2017-10-29T04:07:31.588Z,56.93
2017-10-29T04:09:58.510Z,34.37
2017-10-29T04:12:24.681Z,34.37
2017-10-29T04:14:51.625Z,37.23
2017-10-29T04:17:18.552Z,37.23
2017-10-29T04:19:44.720Z,36.73
2017-10-29T04:22:10.909Z,39.00
2017-10-29T04:24:37.122Z,41.13
2017-10-29T04:27:03.308Z,54.33
2017-10-29T04:29:30.249Z,42.20
2017-10-29T04:31:56.427Z,44.93
2017-10-29T04:34:22.616Z,50.13
2017-10-29T04:36:49.570Z,48.03
2017-10-29T04:39:15.740Z,36.73
2017-10-29T04:41:43.733Z,54.30
2017-10-29T04:44:09.930Z,43.07
2017-10-29T04:46:36.842Z,46.93
2017-10-29T04:49:03.046Z,48.27
2017-10-29T04:51:29.229Z,29.93
2017-10-29T04:53:55.401Z,36.40
2017-10-29T04:56:21.574Z,41.83
2017-10-29T04:58:47.797Z,60.07
2017-10-29T05:01:13.950Z,60.40
2017-10-29T05:03:40.159Z,53.23
2017-10-29T05:06:06.360Z,56.27
2017-10-29T05:08:32.531Z,54.93
2017-10-29T05:10:59.486Z,54.57
2017-10-29T05:13:25.673Z,57.77
2017-10-29T05:15:52.598Z,45.47
2017-10-29T05:18:18.762Z,60.50
2017-10-29T05:20:44.954Z,43.37
2017-10-29T05:23:11.121Z,55.90
2017-10-29T05:25:38.050Z,48.40
2017-10-29T05:28:05.881Z,50.90
2017-10-29T05:30:32.109Z,51.77
2017-10-29T05:32:58.314Z,58.83
2017-10-29T05:35:24.521Z,68.03
2017-10-29T05:37:50.753Z,48.20
2017-10-29T05:40:16.955Z,51.70
2017-10-29T05:42:43.397Z,48.20
2017-10-29T05:45:09.574Z,81.73
2017-10-29T05:47:36.501Z,61.90
2017-10-29T05:50:02.765Z,59.13
2017-10-29T05:52:29.677Z,52.90
2017-10-29T05:54:55.869Z,67.23
2017-10-29T05:57:22.090Z,54.80
2017-10-29T05:59:49.012Z,64.97
2017-10-29T06:02:15.969Z,42.50
2017-10-29T06:04:42.982Z,29.27
2017-10-29T06:07:09.231Z,36.77
2017-10-29T06:09:35.412Z,25.50
2017-10-29T06:12:02.335Z,26.70
2017-10-29T06:14:29.277Z,25.13
2017-10-29T06:16:55.468Z,10.00
2017-10-29T06:19:21.713Z,13.50
2017-10-29T06:21:47.898Z,12.03
2017-10-29T06:24:14.812Z,11.80
2017-10-29T06:26:41.029Z,12.40
2017-10-29T06:29:07.214Z,15.50
2017-10-29T06:31:34.197Z,6.67
2017-10-29T06:34:00.424Z,8.97
2017-10-29T06:36:26.599Z,10.13
2017-10-29T06:38:52.782Z,7.57
2017-10-29T06:41:19.747Z,7.93
2017-10-29T06:43:46.014Z,10.30
2017-10-29T06:46:12.210Z,3.90
2017-10-29T06:48:38.428Z,6.50
2017-10-29T06:51:05.358Z,6.70
2017-10-29T06:53:31.530Z,8.83
2017-10-29T06:55:57.737Z,10.07
2017-10-29T06:58:23.911Z,3.50
2017-10-29T07:00:50.098Z,6.47
2017-10-29T07:03:16.301Z,6.20
2017-10-29T07:05:42.486Z,5.63
2017-10-29T07:08:09.410Z,5.40
2017-10-29T07:10:35.597Z,10.23
2017-10-29T07:13:01.767Z,12.63
2017-10-29T07:15:27.987Z,7.80
2017-10-29T07:17:54.238Z,6.00
2017-10-29T07:20:20.467Z,3.40
2017-10-29T07:22:46.629Z,7.80
2017-10-29T07:25:13.604Z,8.93
2017-10-29T07:27:40.547Z,11.77
2017-10-29T07:30:06.730Z,5.93
2017-10-29T07:32:32.930Z,1.33
2017-10-29T07:34:59.107Z,3.83
2017-10-29T07:37:26.034Z,3.67
2017-10-29T07:39:52.245Z,5.43
2017-10-29T07:42:18.422Z,6.10
2017-10-29T07:44:44.813Z,8.73
2017-10-29T07:47:11.009Z,6.53
2017-10-29T07:49:37.959Z,5.60
2017-10-29T07:52:04.126Z,4.23
2017-10-29T07:54:30.323Z,2.13
2017-10-29T07:56:56.516Z,5.10
2017-10-29T07:59:22.701Z,2.70
2017-10-29T08:01:48.932Z,4.17
2017-10-29T08:04:15.849Z,4.60
2017-10-29T08:06:42.112Z,6.37
2017-10-29T08:09:09.050Z,2.80
2017-10-29T08:11:35.269Z,4.80
2017-10-29T08:14:01.461Z,9.83
2017-10-29T08:16:27.658Z,6.73
2017-10-29T08:18:53.854Z,1.63
2017-10-29T08:21:20.070Z,2.47
2017-10-29T08:23:46.239Z,3.90
2017-10-29T08:26:12.452Z,4.47
2017-10-29T08:28:38.654Z,3.67
2017-10-29T08:31:05.610Z,4.37
2017-10-29T08:33:32.563Z,4.93
2017-10-29T08:35:58.748Z,4.30
2017-10-29T08:38:24.961Z,5.57
2017-10-29T08:40:51.135Z,4.87
2017-10-29T08:43:17.634Z,10.73
2017-10-29T08:45:44.490Z,2.33
2017-10-29T08:48:11.836Z,4.83
2017-10-29T08:50:40.474Z,2.70
2017-10-29T08:53:07.046Z,3.83
2017-10-29T08:55:33.953Z,7.43
2017-10-29T08:58:00.475Z,6.53
2017-10-29T09:00:27.471Z,8.17
2017-10-29T09:02:53.663Z,5.23
2017-10-29T09:05:19.859Z,9.40
2017-10-29T09:07:46.818Z,8.27
2017-10-29T09:10:13.014Z,5.40
2017-10-29T09:12:39.944Z,1.33
2017-10-29T09:15:06.155Z,10.57
2017-10-29T09:17:32.353Z,2.93
2017-10-29T09:19:59.327Z,2.87
2017-10-29T09:22:25.560Z,4.93
2017-10-29T09:24:51.805Z,3.30
2017-10-29T09:27:17.990Z,4.83
2017-10-29T09:29:45.027Z,2.80
2017-10-29T09:32:11.969Z,5.27
2017-10-29T09:34:38.960Z,4.50
2017-10-29T09:37:05.237Z,6.13
2017-10-29T09:39:31.445Z,3.70
2017-10-29T09:41:57.734Z,1.47
2017-10-29T09:44:24.021Z,6.53
2017-10-29T09:46:50.368Z,10.77
2017-10-29T09:49:16.537Z,5.40
2017-10-29T09:51:42.742Z,6.90
2017-10-29T09:54:08.972Z,5.23
2017-10-29T09:56:35.175Z,12.07
2017-10-29T09:59:02.129Z,13.97
2017-10-29T10:01:30.754Z,7.53
2017-10-29T10:03:56.963Z,8.20
2017-10-29T10:06:23.917Z,12.80
2017-10-29T10:08:50.123Z,11.63
2017-10-29T10:11:16.350Z,9.57
2017-10-29T10:13:42.542Z,12.17
2017-10-29T10:16:08.746Z,11.93
2017-10-29T10:18:34.953Z,8.77
2017-10-29T10:21:01.206Z,7.60
2017-10-29T10:23:28.111Z,20.43
2017-10-29T10:25:54.344Z,10.37
2017-10-29T10:28:20.553Z,11.10
2017-10-29T10:30:46.814Z,13.57
2017-10-29T10:33:12.993Z,18.73
2017-10-29T10:35:39.965Z,7.17
2017-10-29T10:38:06.211Z,13.83
2017-10-29T10:40:32.377Z,7.63
2017-10-29T10:42:58.580Z,6.33
2017-10-29T10:45:24.764Z,9.93
2017-10-29T10:47:51.774Z,8.90
2017-10-29T10:50:17.982Z,12.90
2017-10-29T10:52:44.229Z,11.53
2017-10-29T10:55:10.437Z,10.63
2017-10-29T10:57:37.356Z,10.00
2017-10-29T11:00:04.418Z,11.40
2017-10-29T11:02:32.102Z,17.33
2017-10-29T11:04:59.104Z,9.23
2017-10-29T11:07:25.446Z,5.60
2017-10-29T11:09:51.658Z,11.43
2017-10-29T11:12:17.866Z,6.60
2017-10-29T11:14:44.813Z,3.47
2017-10-29T11:17:11.781Z,6.37
2017-10-29T11:19:39.543Z,12.37
2017-10-29T11:22:05.729Z,4.03
2017-10-29T11:24:31.910Z,2.87
2017-10-29T11:26:58.829Z,4.30
2017-10-29T11:29:25.034Z,1.17
2017-10-29T11:31:51.215Z,3.20
2017-10-29T11:34:17.442Z,2.80
2017-10-29T11:36:44.387Z,4.20
2017-10-29T11:39:10.622Z,2.50
2017-10-29T11:41:36.826Z,2.40
2017-10-29T11:44:03.002Z,2.50
2017-10-29T11:46:29.929Z,4.30
2017-10-29T11:48:56.410Z,3.73
2017-10-29T11:51:22.648Z,2.07
2017-10-29T11:53:48.825Z,4.47
2017-10-29T11:56:15.046Z,4.83
2017-10-29T11:58:42.017Z,4.30
2017-10-29T12:01:08.198Z,2.77
2017-10-29T12:03:34.406Z,2.00
2017-10-29T12:06:01.341Z,6.13
2017-10-29T12:08:28.995Z,2.97
2017-10-29T12:10:56.025Z,5.00
2017-10-29T12:13:22.213Z,2.40
2017-10-29T12:15:49.128Z,2.10
2017-10-29T12:18:16.823Z,6.93
2017-10-29T12:20:43.780Z,10.13
2017-10-29T12:23:09.989Z,2.17
2017-10-29T12:25:36.200Z,2.53
2017-10-29T12:28:02.363Z,2.50
2017-10-29T12:30:28.535Z,1.73
2017-10-29T12:32:54.774Z,3.80
2017-10-29T12:35:20.962Z,3.23
2017-10-29T12:37:47.162Z,5.40
2017-10-29T12:40:13.353Z,0.83
2017-10-29T12:42:40.271Z,2.70
2017-10-29T12:45:06.512Z,2.20
2017-10-29T12:47:32.699Z,2.97
2017-10-29T12:49:58.934Z,1.50
2017-10-29T12:52:25.135Z,4.60
2017-10-29T12:54:52.085Z,2.13
2017-10-29T12:57:19.022Z,4.63
2017-10-29T12:59:45.249Z,3.30
2017-10-29T13:02:11.557Z,3.80
2017-10-29T13:04:37.762Z,4.40
2017-10-29T13:07:03.949Z,3.37
2017-10-29T13:09:30.175Z,3.33
2017-10-29T13:11:56.365Z,2.37
2017-10-29T13:14:22.547Z,1.93
2017-10-29T13:16:49.538Z,1.53
2017-10-29T13:19:16.450Z,6.40
2017-10-29T13:21:42.677Z,3.73
2017-10-29T13:24:08.925Z,2.40
2017-10-29T13:26:35.150Z,3.70
2017-10-29T13:29:01.407Z,5.23
2017-10-29T13:31:27.671Z,1.23
2017-10-29T13:33:54.737Z,0.90
2017-10-29T13:36:21.098Z,2.50
2017-10-29T13:38:47.471Z,1.43
2017-10-29T13:41:13.768Z,6.10
2017-10-29T13:43:41.855Z,1.33
2017-10-29T13:46:16.505Z,2.73
2017-10-29T13:48:42.904Z,3.60
2017-10-29T13:51:09.429Z,1.80
2017-10-29T13:53:35.761Z,2.37
2017-10-29T13:56:02.874Z,1.70
2017-10-29T13:58:29.135Z,4.30
2017-10-29T14:00:55.398Z,4.53
2017-10-29T14:03:21.590Z,2.30
2017-10-29T14:05:48.549Z,2.67
2017-10-29T14:08:15.539Z,5.90
2017-10-29T14:10:41.746Z,4.53
2017-10-29T14:13:08.691Z,1.57
2017-10-29T14:15:35.729Z,3.07
2017-10-29T14:18:01.985Z,5.67
2017-10-29T14:20:29.295Z,6.80
2017-10-29T14:22:56.303Z,3.13
2017-10-29T14:25:23.506Z,3.63
2017-10-29T14:27:49.674Z,1.73
2017-10-29T14:30:16.628Z,3.80
2017-10-29T14:32:43.562Z,2.37
2017-10-29T14:35:09.765Z,10.30
2017-10-29T14:37:36.006Z,5.17
2017-10-29T14:40:02.270Z,10.20
2017-10-29T14:42:28.474Z,3.03
2017-10-29T14:44:54.699Z,8.40
2017-10-29T14:47:20.967Z,3.10
2017-10-29T14:49:47.915Z,7.00
2017-10-29T14:52:14.245Z,6.90
2017-10-29T14:54:40.476Z,8.03
2017-10-29T14:57:06.693Z,12.77
2017-10-29T14:59:32.934Z,2.20
2017-10-29T15:01:59.154Z,8.57
2017-10-29T15:04:25.365Z,7.83
2017-10-29T15:06:51.719Z,5.87
2017-10-29T15:09:17.925Z,8.33
2017-10-29T15:11:44.153Z,10.50
2017-10-29T15:14:10.425Z,7.93
2017-10-29T15:16:36.622Z,9.27
2017-10-29T15:19:03.537Z,10.73
2017-10-29T15:21:29.761Z,9.10
2017-10-29T15:23:55.945Z,8.37
2017-10-29T15:26:22.896Z,9.73
2017-10-29T15:28:49.835Z,6.17
2017-10-29T15:31:16.748Z,12.10
2017-10-29T15:33:43.034Z,9.40
2017-10-29T15:36:09.998Z,12.60
2017-10-29T15:38:36.998Z,14.40
2017-10-29T15:41:03.183Z,8.60
2017-10-29T15:43:29.373Z,19.90
2017-10-29T15:45:55.583Z,7.60
2017-10-29T15:48:21.813Z,13.27
2017-10-29T15:50:48.029Z,16.53
2017-10-29T15:53:14.503Z,13.20
2017-10-29T15:55:40.762Z,17.43
2017-10-29T15:58:07.737Z,13.60
2017-10-29T16:00:34.667Z,11.10
2017-10-29T16:03:01.585Z,11.20
2017-10-29T16:05:27.789Z,13.20
2017-10-29T16:07:53.984Z,12.30
2017-10-29T16:10:20.953Z,13.93
2017-10-29T16:12:47.226Z,18.13
2017-10-29T16:15:13.414Z,20.10
2017-10-29T16:17:40.322Z,19.50
2017-10-29T16:20:06.546Z,13.20
2017-10-29T16:22:32.768Z,17.00
2017-10-29T16:24:58.953Z,9.70
2017-10-29T16:27:25.915Z,11.53
2017-10-29T16:29:52.881Z,10.93
2017-10-29T16:32:19.202Z,14.70
2017-10-29T16:34:46.177Z,30.77
2017-10-29T16:37:12.426Z,8.87
2017-10-29T16:39:38.674Z,26.93
2017-10-29T16:42:04.897Z,7.90
2017-10-29T16:44:31.086Z,15.43
2017-10-29T16:46:57.999Z,20.73
2017-10-29T16:49:24.245Z,27.00
2017-10-29T16:51:50.449Z,11.93
2017-10-29T16:54:16.795Z,12.73
2017-10-29T16:56:43.062Z,20.47
2017-10-29T16:59:09.306Z,16.47
2017-10-29T17:01:36.030Z,9.17
2017-10-29T17:04:03.383Z,11.60
2017-10-29T17:06:29.564Z,13.93
2017-10-29T17:08:55.749Z,22.83
2017-10-29T17:11:22.833Z,6.90
2017-10-29T17:13:49.789Z,8.53
2017-10-29T17:16:15.995Z,19.30
2017-10-29T17:18:43.018Z,7.97
2017-10-29T17:21:09.238Z,9.57
2017-10-29T17:23:36.235Z,15.13
2017-10-29T17:26:02.523Z,10.67
2017-10-29T17:28:28.714Z,16.43
2017-10-29T17:30:55.650Z,9.10
2017-10-29T17:33:21.850Z,9.60
2017-10-29T17:35:48.032Z,13.77
2017-10-29T17:38:14.242Z,12.27
2017-10-29T17:40:42.125Z,14.63
2017-10-29T17:43:08.310Z,16.00
2017-10-29T17:45:34.534Z,15.17
2017-10-29T17:48:00.777Z,23.40
2017-10-29T17:50:26.952Z,8.73
2017-10-29T17:52:53.171Z,9.33
2017-10-29T17:55:19.565Z,14.87
2017-10-29T17:57:46.507Z,8.33
2017-10-29T18:00:13.452Z,9.70
2017-10-29T18:02:39.690Z,17.83
2017-10-29T18:05:06.664Z,13.13
2017-10-29T18:07:32.860Z,10.07
2017-10-29T18:09:59.189Z,13.07
2017-10-29T18:12:25.377Z,17.33
2017-10-29T18:14:52.844Z,18.40
2017-10-29T18:17:19.077Z,16.97
2017-10-29T18:19:45.277Z,16.03
2017-10-29T18:22:11.548Z,10.63
2017-10-29T18:24:38.629Z,15.50
2017-10-29T18:27:04.833Z,16.47
2017-10-29T18:29:31.049Z,13.97
2017-10-29T18:31:58.048Z,16.57
2017-10-29T18:34:24.262Z,19.33
2017-10-29T18:36:50.482Z,37.30
2017-10-29T18:39:17.422Z,37.30
2017-10-29T18:41:44.360Z,16.80
2017-10-29T18:44:10.566Z,19.13
2017-10-29T18:46:36.778Z,12.70
2017-10-29T18:49:02.972Z,16.40
2017-10-29T18:51:29.894Z,18.90
2017-10-29T18:53:56.176Z,22.80
2017-10-29T18:56:22.509Z,18.67
2017-10-29T18:58:48.705Z,15.53
2017-10-29T19:01:14.906Z,14.57
2017-10-29T19:03:41.129Z,21.57
2017-10-29T19:06:07.337Z,11.30
2017-10-29T19:08:34.285Z,19.53
2017-10-29T19:11:00.462Z,35.67
2017-10-29T19:13:26.670Z,24.37
2017-10-29T19:15:52.927Z,18.27
2017-10-29T19:18:19.141Z,20.70
2017-10-29T19:20:45.379Z,14.23
2017-10-29T19:23:11.617Z,21.27
2017-10-29T19:25:37.813Z,25.33
2017-10-29T19:28:04.736Z,28.70
2017-10-29T19:30:31.750Z,20.53
2017-10-29T19:32:57.941Z,15.10
2017-10-29T19:35:24.857Z,11.87
2017-10-29T19:37:51.059Z,22.60
2017-10-29T19:40:17.266Z,29.53
2017-10-29T19:42:44.178Z,19.13
2017-10-29T19:45:10.397Z,32.00
2017-10-29T19:47:36.620Z,44.40
2017-10-29T19:50:02.815Z,47.80
2017-10-29T19:52:29.750Z,31.87
2017-10-29T19:54:57.438Z,16.60
2017-10-29T19:57:24.569Z,21.30
2017-10-29T19:59:50.781Z,22.17
2017-10-29T20:02:16.984Z,22.70
2017-10-29T20:04:43.191Z,36.53
2017-10-29T20:07:10.167Z,33.37
2017-10-29T20:09:37.095Z,26.40
2017-10-29T20:12:04.016Z,27.80
2017-10-29T20:14:30.306Z,15.30
2017-10-29T20:16:56.499Z,14.90
2017-10-29T20:19:22.700Z,20.67
2017-10-29T20:21:48.939Z,23.93
2017-10-29T20:24:15.162Z,28.50
2017-10-29T20:26:42.128Z,38.60
2017-10-29T20:29:08.367Z,37.53
2017-10-29T20:31:34.584Z,35.10
2017-10-29T20:34:00.819Z,24.30
2017-10-29T20:36:27.122Z,44.90
2017-10-29T20:38:54.065Z,18.20
2017-10-29T20:41:21.008Z,21.73
2017-10-29T20:43:47.973Z,27.67
2017-10-29T20:46:14.198Z,18.53
2017-10-29T20:48:41.121Z,22.50
2017-10-29T20:51:08.153Z,33.73
2017-10-29T20:53:34.334Z,47.60
2017-10-29T20:56:01.277Z,32.63
2017-10-29T20:58:27.604Z,25.50
2017-10-29T21:00:53.787Z,28.27
2017-10-29T21:03:20.738Z,41.10
2017-10-29T21:05:47.797Z,17.40
2017-10-29T21:08:13.996Z,28.90
2017-10-29T21:10:40.939Z,21.80
2017-10-29T21:13:07.900Z,19.20
2017-10-29T21:15:34.832Z,24.03
2017-10-29T21:18:01.000Z,35.47
2017-10-29T21:20:27.214Z,23.37
2017-10-29T21:22:54.174Z,35.50
2017-10-29T21:25:20.473Z,32.13
2017-10-29T21:27:46.910Z,24.87
2017-10-29T21:30:13.266Z,23.80
2017-10-29T21:32:40.216Z,27.43
2017-10-29T21:35:07.308Z,24.03
2017-10-29T21:37:33.496Z,22.40
2017-10-29T21:39:59.683Z,23.50
2017-10-29T21:42:25.882Z,32.93
2017-10-29T21:44:52.808Z,17.10
2017-10-29T21:47:19.006Z,33.83
2017-10-29T21:49:45.241Z,19.27
2017-10-29T21:52:12.226Z,15.87
2017-10-29T21:54:38.390Z,29.17
2017-10-29T21:57:05.329Z,32.80
2017-10-29T21:59:32.441Z,26.70
2017-10-29T22:01:58.640Z,22.47
2017-10-29T22:04:24.882Z,29.20
2017-10-29T22:06:51.127Z,19.53
2017-10-29T22:09:17.301Z,28.10
2017-10-29T22:11:43.506Z,20.23
2017-10-29T22:14:09.685Z,31.43
2017-10-29T22:16:36.634Z,37.30
2017-10-29T22:19:04.314Z,44.63
2017-10-29T22:21:31.243Z,17.67
2017-10-29T22:23:57.426Z,33.03
2017-10-29T22:26:23.628Z,33.80
2017-10-29T22:28:50.571Z,23.60
2017-10-29T22:31:16.766Z,25.20
2017-10-29T22:33:43.005Z,28.83
2017-10-29T22:36:09.218Z,25.23
2017-10-29T22:38:35.484Z,23.00
2017-10-29T22:41:02.520Z,24.10
2017-10-29T22:43:28.778Z,25.97
2017-10-29T22:45:54.993Z,24.97
2017-10-29T22:48:21.229Z,18.63
2017-10-29T22:50:47.442Z,11.40
2017-10-29T22:53:13.667Z,19.47
2017-10-29T22:55:39.878Z,28.53
2017-10-29T22:58:06.097Z,26.37
2017-10-29T23:00:33.242Z,18.80
2017-10-29T23:02:59.508Z,28.97
2017-10-29T23:05:38.749Z,42.40
2017-10-29T23:08:09.677Z,35.07
2017-10-29T23:10:35.867Z,36.13
2017-10-29T23:13:02.167Z,17.80
2017-10-29T23:15:28.402Z,19.57
2017-10-29T23:17:55.338Z,26.67
2017-10-29T23:20:22.392Z,20.43
2017-10-29T23:22:49.366Z,26.03
2017-10-29T23:25:15.635Z,14.23
2017-10-29T23:27:41.822Z,32.20
2017-10-29T23:30:08.737Z,37.77
2017-10-29T23:32:34.937Z,17.37
2017-10-29T23:35:01.201Z,26.10
2017-10-29T23:37:27.421Z,24.47
2017-10-29T23:39:53.592Z,17.07
2017-10-29T23:42:20.505Z,20.77
2017-10-29T23:44:46.742Z,19.33
2017-10-29T23:47:13.742Z,17.93
2017-10-29T23:49:40.657Z,23.83
2017-10-29T23:52:07.609Z,16.67
2017-10-29T23:54:33.867Z,30.40
2017-10-29T23:57:00.777Z,19.23
2017-10-29T23:59:26.982Z,17.37
